aviador You're here:

KHLR Decoded Metar

FORT HOOD in TX, USA
Report Time2018-05-26 23:58:00
UTC Time2018-05-27 01:05:23
Flight Rules Old
Wind120° at 10 kt
W.Decomp.*RWY 16: 7.1 kt HW 7.1 kt LCW
W.Rank120° ranks 8
Current wind is above 120° avg. (6.8)
Visibility9999 m
Phenomena:N/A
Clouds:N/A
Expected CloudBase > 7,200 ft AGL from Temp-Dew spread
CeilingNone
Temp35°C (ISA +22)
Dew Point17°C (34% RH)
Heat Index35.6°C
AAT33.7°C
QNH1006 hPa
Density Alt3,894 ft
Elevation928 ft
Report Wrong Elevation
Raw Report
KHLR 262358Z AUTO 12010KT 10SM CLR 35/17 A2971 RMK AO2 SLP048
T03450174 10357 20330 57012=

Extra information for KHLR:More info

Metar Taf Metar & Taf Last 4 Metars F.Rules Stats Wind Profile Meteogram Temp Stats Airport Information Weather charts Add Link Nearby VenuesMetar ALERT Operation Metar Decoded Social comments

AIRNAV info for KHLR